createdAt,value
2023-04-25T00:00:41.147Z,8.50
2023-04-25T00:03:11.214Z,8.50
2023-04-25T00:05:45.270Z,8.50
2023-04-25T00:08:15.462Z,8.50
2023-04-25T00:10:45.495Z,8.50
2023-04-25T00:13:15.959Z,8.50
2023-04-25T00:15:47.493Z,8.50
2023-04-25T00:18:18.936Z,8.50
2023-04-25T00:20:51.905Z,8.50
2023-04-25T00:23:22.077Z,8.40
2023-04-25T00:25:53.992Z,8.40
2023-04-25T00:28:24.043Z,8.40
2023-04-25T00:30:54.251Z,8.40
2023-04-25T00:33:24.220Z,8.40
2023-04-25T00:35:57.101Z,8.40
2023-04-25T00:38:27.064Z,8.30
2023-04-25T00:40:58.039Z,8.30
2023-04-25T00:43:29.336Z,8.30
2023-04-25T00:46:01.062Z,8.30
2023-04-25T00:48:31.046Z,8.30
2023-04-25T00:51:03.818Z,8.30
2023-04-25T00:53:34.641Z,8.30
2023-04-25T00:56:05.226Z,8.30
2023-04-25T00:58:35.348Z,8.30
2023-04-25T01:01:05.918Z,8.30
2023-04-25T01:03:37.817Z,8.40
2023-04-25T01:06:12.497Z,8.40
2023-04-25T01:08:43.497Z,8.40
2023-04-25T01:11:13.476Z,8.40
2023-04-25T01:13:43.538Z,8.40
2023-04-25T01:16:13.608Z,8.40
2023-04-25T01:18:45.663Z,8.40
2023-04-25T01:21:18.257Z,8.40
2023-04-25T01:23:48.488Z,8.40
2023-04-25T01:26:18.931Z,8.40
2023-04-25T01:28:49.334Z,8.40
2023-04-25T01:31:20.908Z,8.40
2023-04-25T01:33:52.506Z,8.40
2023-04-25T01:36:26.395Z,8.40
2023-04-25T01:38:56.558Z,8.40
2023-04-25T01:41:26.922Z,8.40
2023-04-25T01:43:57.115Z,8.40
2023-04-25T01:46:27.692Z,8.40
2023-04-25T01:48:57.849Z,8.50
2023-04-25T01:51:31.124Z,8.50
2023-04-25T01:54:01.587Z,8.50
2023-04-25T01:56:34.800Z,8.50
2023-04-25T01:59:04.782Z,8.50
2023-04-25T02:01:35.099Z,8.50
2023-04-25T02:04:05.346Z,8.60
2023-04-25T02:06:38.020Z,8.60
2023-04-25T02:09:08.009Z,8.60
2023-04-25T02:11:37.960Z,8.60
2023-04-25T02:14:07.915Z,8.60
2023-04-25T02:16:38.445Z,8.60
2023-04-25T02:19:08.784Z,8.60
2023-04-25T02:21:41.556Z,8.60
2023-04-25T02:24:12.622Z,8.60
2023-04-25T02:26:42.596Z,8.60
2023-04-25T02:29:13.606Z,8.60
2023-04-25T02:31:43.704Z,8.60
2023-04-25T02:34:13.777Z,8.60
2023-04-25T02:36:46.346Z,8.60
2023-04-25T02:39:16.513Z,8.60
2023-04-25T02:41:46.569Z,8.60
2023-04-25T02:44:16.536Z,8.60
2023-04-25T02:46:46.535Z,8.60
2023-04-25T02:49:16.587Z,8.60
2023-04-25T02:51:49.201Z,8.60
2023-04-25T02:54:19.173Z,8.60
2023-04-25T02:56:49.109Z,8.60
2023-04-25T02:59:19.114Z,8.60
2023-04-25T03:01:49.128Z,8.60
2023-04-25T03:04:20.216Z,8.60
2023-04-25T03:06:52.903Z,8.50
2023-04-25T03:09:22.935Z,8.50
2023-04-25T03:11:52.872Z,8.50
2023-04-25T03:14:22.912Z,8.50
2023-04-25T03:16:52.936Z,8.50
2023-04-25T03:19:23.146Z,8.50
2023-04-25T03:21:55.786Z,8.50
2023-04-25T03:24:26.199Z,8.60
2023-04-25T03:26:56.151Z,8.50
2023-04-25T03:29:27.717Z,8.50
2023-04-25T03:31:57.736Z,8.50
2023-04-25T03:34:27.849Z,8.50
2023-04-25T03:37:01.108Z,8.50
2023-04-25T03:39:31.150Z,8.50
2023-04-25T03:42:01.136Z,8.50
2023-04-25T03:44:31.170Z,8.50
2023-04-25T03:47:01.501Z,8.50
2023-04-25T03:49:31.542Z,8.50
2023-04-25T03:52:04.360Z,8.50
2023-04-25T03:54:34.536Z,8.50
2023-04-25T03:57:04.576Z,8.50
2023-04-25T03:59:34.704Z,8.50
2023-04-25T04:02:04.956Z,8.50
2023-04-25T04:04:35.257Z,8.50
2023-04-25T04:07:08.339Z,8.50
2023-04-25T04:09:38.482Z,8.50
2023-04-25T04:12:09.705Z,8.50
2023-04-25T04:14:39.818Z,8.50
2023-04-25T04:17:09.966Z,8.40
2023-04-25T04:19:40.250Z,8.50
2023-04-25T04:22:12.892Z,8.50
2023-04-25T04:24:45.098Z,8.50
2023-04-25T04:27:15.208Z,8.50
2023-04-25T04:29:45.439Z,8.50
2023-04-25T04:32:16.605Z,8.50
2023-04-25T04:34:48.525Z,8.50
2023-04-25T04:37:21.313Z,8.50
2023-04-25T04:39:51.498Z,8.40
2023-04-25T04:42:22.454Z,8.50
2023-04-25T04:44:53.363Z,8.40
2023-04-25T04:47:24.874Z,8.50
2023-04-25T04:49:55.309Z,8.50
2023-04-25T04:52:28.028Z,8.50
2023-04-25T04:54:58.224Z,8.50
2023-04-25T04:57:28.551Z,8.50
2023-04-25T04:59:58.703Z,8.50
2023-04-25T05:02:29.514Z,8.50
2023-04-25T05:05:00.950Z,8.50
2023-04-25T05:07:33.610Z,8.50
2023-04-25T05:10:03.962Z,8.60
2023-04-25T05:12:36.462Z,8.60
2023-04-25T05:15:08.262Z,8.60
2023-04-25T05:17:38.468Z,8.60
2023-04-25T05:20:10.769Z,8.60
2023-04-25T05:22:43.510Z,8.60
2023-04-25T05:25:13.877Z,8.60
2023-04-25T05:27:43.924Z,8.60
2023-04-25T05:30:14.673Z,8.60
2023-04-25T05:32:44.825Z,8.60
2023-04-25T05:35:14.910Z,8.60
2023-04-25T05:37:47.514Z,8.60
2023-04-25T05:40:18.103Z,8.60
2023-04-25T05:42:48.253Z,8.60
2023-04-25T05:45:18.804Z,8.60
2023-04-25T05:47:48.899Z,8.60
2023-04-25T05:50:19.003Z,8.60
2023-04-25T05:52:51.615Z,8.70
2023-04-25T05:55:21.930Z,8.70
2023-04-25T05:57:51.971Z,8.70
2023-04-25T06:00:23.784Z,8.70
2023-04-25T06:02:53.990Z,8.70
2023-04-25T06:05:24.777Z,8.70
2023-04-25T06:07:57.498Z,8.70
2023-04-25T06:10:27.495Z,8.70
2023-04-25T06:12:57.459Z,8.70
2023-04-25T06:15:28.907Z,8.70
2023-04-25T06:18:00.629Z,8.70
2023-04-25T06:20:30.991Z,8.70
2023-04-25T06:23:03.589Z,8.80
2023-04-25T06:25:33.626Z,8.80
2023-04-25T06:28:03.660Z,8.90
2023-04-25T06:30:33.671Z,8.80
2023-04-25T06:33:03.816Z,8.80
2023-04-25T06:35:33.866Z,8.80
2023-04-25T06:38:06.684Z,8.80
2023-04-25T06:40:36.656Z,8.80
2023-04-25T06:43:06.802Z,8.80
2023-04-25T06:45:36.793Z,8.90
2023-04-25T06:48:07.696Z,8.90
2023-04-25T06:50:38.208Z,8.80
2023-04-25T06:53:12.685Z,8.70
2023-04-25T06:55:42.776Z,8.80
2023-04-25T06:58:12.857Z,8.80
2023-04-25T07:00:43.191Z,8.80
2023-04-25T07:03:13.582Z,8.80
2023-04-25T07:05:43.717Z,8.70
2023-04-25T07:08:16.297Z,8.80
2023-04-25T07:10:49.696Z,8.70
2023-04-25T07:13:20.037Z,8.80
2023-04-25T07:15:50.254Z,8.80
2023-04-25T07:18:20.289Z,8.80
2023-04-25T07:20:50.327Z,8.80
2023-04-25T07:23:23.011Z,8.80
2023-04-25T07:25:53.058Z,8.80
2023-04-25T07:28:23.076Z,8.80
2023-04-25T07:30:53.114Z,8.90
2023-04-25T07:33:24.461Z,8.90
2023-04-25T07:35:54.469Z,8.80
2023-04-25T07:38:27.091Z,8.80
2023-04-25T07:40:57.042Z,8.80
2023-04-25T07:43:27.232Z,8.90
2023-04-25T07:45:57.403Z,8.90
2023-04-25T07:48:27.450Z,8.90
2023-04-25T07:50:57.434Z,8.80
2023-04-25T07:53:30.068Z,8.70
2023-04-25T07:56:00.117Z,8.70
2023-04-25T07:58:30.198Z,8.70
2023-04-25T08:01:00.211Z,8.70
2023-04-25T08:03:30.418Z,8.60
2023-04-25T08:06:00.792Z,8.60
2023-04-25T08:08:34.368Z,8.70
2023-04-25T08:11:04.461Z,8.80
2023-04-25T08:13:34.454Z,8.90
2023-04-25T08:16:04.659Z,9.00
2023-04-25T08:18:34.809Z,9.00
2023-04-25T08:21:05.041Z,9.00
2023-04-25T08:23:37.571Z,8.90
2023-04-25T08:26:08.069Z,8.90
2023-04-25T08:28:38.104Z,9.00
2023-04-25T08:31:08.387Z,8.90
2023-04-25T08:33:38.502Z,9.00
2023-04-25T08:36:09.550Z,9.00
2023-04-25T08:38:42.240Z,9.00
2023-04-25T08:41:12.422Z,8.90
2023-04-25T08:43:46.676Z,9.00
2023-04-25T08:46:20.474Z,9.20
2023-04-25T08:48:52.923Z,9.40
2023-04-25T08:51:27.144Z,9.20
2023-04-25T08:54:34.539Z,9.00
2023-04-25T08:57:03.056Z,9.00
2023-04-25T08:59:36.100Z,9.10
2023-04-25T09:02:08.038Z,9.40
2023-04-25T09:04:38.271Z,9.70
2023-04-25T09:07:08.492Z,9.90
2023-04-25T09:09:41.236Z,9.80
2023-04-25T09:12:11.553Z,9.60
2023-04-25T09:14:43.858Z,9.50
2023-04-25T09:17:13.957Z,9.50
2023-04-25T09:19:46.355Z,9.70
2023-04-25T09:22:16.355Z,9.70
2023-04-25T09:24:51.272Z,9.80
2023-04-25T09:27:25.118Z,9.90
2023-04-25T09:30:02.189Z,9.70
2023-04-25T09:32:32.819Z,9.50
2023-04-25T09:35:03.189Z,9.70
2023-04-25T09:37:34.709Z,9.70
2023-04-25T09:40:11.553Z,9.80
2023-04-25T09:42:45.952Z,10.20
2023-04-25T09:45:17.415Z,10.50
2023-04-25T09:47:47.566Z,10.40
2023-04-25T09:50:25.750Z,10.40
2023-04-25T09:53:08.216Z,10.50
2023-04-25T09:55:42.328Z,11.10
2023-04-25T09:58:15.219Z,11.30
2023-04-25T10:00:46.049Z,11.10
2023-04-25T10:03:17.075Z,10.70
2023-04-25T10:05:48.488Z,10.60
2023-04-25T10:08:19.781Z,10.80
2023-04-25T10:10:53.540Z,10.70
2023-04-25T10:13:24.169Z,10.60
2023-04-25T10:15:56.260Z,10.50
2023-04-25T10:18:27.832Z,10.50
2023-04-25T10:20:59.520Z,10.50
2023-04-25T10:23:30.862Z,10.80
2023-04-25T10:26:04.190Z,11.00
2023-04-25T10:29:00.737Z,10.90
2023-04-25T10:31:32.006Z,10.60
2023-04-25T10:34:04.605Z,10.60
2023-04-25T10:36:38.672Z,10.40
2023-04-25T10:39:11.153Z,10.50
2023-04-25T10:41:59.270Z,10.60
2023-04-25T10:44:32.157Z,10.60
2023-04-25T10:47:04.558Z,10.40
2023-04-25T10:49:37.150Z,10.40
2023-04-25T10:52:22.556Z,10.50
2023-04-25T10:54:56.614Z,10.50
2023-04-25T10:57:40.976Z,10.40
2023-04-25T11:00:20.893Z,10.30
2023-04-25T11:02:55.492Z,10.30
2023-04-25T11:05:33.140Z,10.30
2023-04-25T11:08:08.315Z,10.20
2023-04-25T11:10:39.133Z,10.20
2023-04-25T11:13:11.991Z,10.00
2023-04-25T11:15:42.468Z,10.10
2023-04-25T11:18:12.703Z,10.30
2023-04-25T11:20:42.991Z,10.10
2023-04-25T11:23:13.275Z,10.30
2023-04-25T11:25:43.732Z,10.30
2023-04-25T11:28:16.912Z,10.20
2023-04-25T11:30:53.396Z,10.40
2023-04-25T11:33:28.733Z,10.40
2023-04-25T11:36:00.019Z,10.50
2023-04-25T11:38:30.427Z,10.50
2023-04-25T11:41:02.143Z,10.50
2023-04-25T11:43:36.074Z,10.40
2023-04-25T11:46:11.649Z,10.30
2023-04-25T11:48:43.019Z,10.20
2023-04-25T11:51:13.530Z,10.00
2023-04-25T11:53:46.336Z,9.80
2023-04-25T11:56:17.172Z,9.70
2023-04-25T11:59:04.667Z,9.70
2023-04-25T12:01:37.851Z,9.70
2023-04-25T12:04:19.295Z,9.60
2023-04-25T12:06:52.010Z,9.60
2023-04-25T12:09:25.088Z,9.50
2023-04-25T12:11:59.269Z,9.50
2023-04-25T12:14:34.136Z,9.50
2023-04-25T12:17:09.350Z,9.60
2023-04-25T12:19:45.410Z,9.70
2023-04-25T12:22:26.859Z,9.70
2023-04-25T12:24:59.542Z,9.70
2023-04-25T12:27:31.102Z,9.90
2023-04-25T12:30:03.853Z,10.10
2023-04-25T12:32:34.088Z,10.10
2023-04-25T12:35:04.899Z,10.00
2023-04-25T12:37:35.121Z,10.00
2023-04-25T12:40:05.597Z,10.10
2023-04-25T12:42:35.951Z,10.30
2023-04-25T12:45:10.365Z,10.30
2023-04-25T12:47:40.430Z,9.90
2023-04-25T12:50:11.256Z,9.80
2023-04-25T12:52:41.367Z,9.90
2023-04-25T12:55:12.052Z,9.90
2023-04-25T12:57:42.149Z,10.00
2023-04-25T13:00:19.276Z,10.20
2023-04-25T13:02:50.294Z,10.40
2023-04-25T13:05:20.552Z,10.50
2023-04-25T13:07:50.732Z,10.60
2023-04-25T13:10:21.146Z,10.70
2023-04-25T13:12:51.800Z,10.70
2023-04-25T13:15:24.522Z,10.50
2023-04-25T13:17:54.639Z,10.50
2023-04-25T13:20:24.974Z,10.50
2023-04-25T13:22:55.053Z,10.50
2023-04-25T13:25:26.057Z,10.70
2023-04-25T13:27:56.508Z,10.50
2023-04-25T13:30:29.435Z,10.50
2023-04-25T13:33:04.435Z,10.40
2023-04-25T13:35:35.140Z,10.30
2023-04-25T13:38:05.862Z,10.70
2023-04-25T13:40:35.970Z,11.40
2023-04-25T13:43:07.658Z,11.80
2023-04-25T13:45:40.371Z,11.70
2023-04-25T13:48:10.694Z,10.90
2023-04-25T13:50:40.850Z,10.80
2023-04-25T13:53:11.044Z,10.50
2023-04-25T13:55:41.322Z,10.20
2023-04-25T13:58:11.506Z,10.20
2023-04-25T14:00:47.126Z,10.10
2023-04-25T14:03:17.515Z,10.10
2023-04-25T14:05:47.796Z,10.00
2023-04-25T14:08:17.951Z,10.10
2023-04-25T14:10:47.998Z,10.00
2023-04-25T14:13:18.139Z,10.00
2023-04-25T14:15:51.435Z,9.90
2023-04-25T14:18:21.948Z,9.80
2023-04-25T14:20:52.358Z,9.80
2023-04-25T14:23:22.584Z,9.90
2023-04-25T14:25:52.728Z,10.00
2023-04-25T14:28:23.600Z,10.40
2023-04-25T14:30:56.420Z,10.50
2023-04-25T14:33:26.760Z,10.50
2023-04-25T14:35:57.140Z,10.60
2023-04-25T14:38:27.997Z,10.40
2023-04-25T14:40:58.047Z,10.20
2023-04-25T14:43:28.283Z,10.10
2023-04-25T14:46:01.151Z,10.10
2023-04-25T14:48:31.593Z,10.10
2023-04-25T14:51:02.150Z,10.00
2023-04-25T14:53:32.684Z,10.00
2023-04-25T14:56:02.787Z,10.00
2023-04-25T14:58:33.106Z,10.00
2023-04-25T15:01:06.109Z,10.00
2023-04-25T15:03:36.784Z,10.10
2023-04-25T15:06:07.627Z,10.10
2023-04-25T15:08:38.146Z,9.90
2023-04-25T15:11:08.454Z,9.80
2023-04-25T15:13:38.720Z,9.80
2023-04-25T15:16:12.844Z,9.60
2023-04-25T15:18:43.124Z,9.60
2023-04-25T15:21:13.215Z,9.70
2023-04-25T15:23:43.368Z,9.70
2023-04-25T15:26:13.568Z,9.80
2023-04-25T15:28:43.894Z,9.70
2023-04-25T15:31:16.547Z,9.70
2023-04-25T15:33:46.869Z,9.60
2023-04-25T15:36:17.572Z,9.60
2023-04-25T15:38:47.633Z,9.60
2023-04-25T15:41:18.403Z,9.50
2023-04-25T15:43:50.995Z,9.40
2023-04-25T15:46:24.063Z,9.50
2023-04-25T15:48:54.264Z,9.50
2023-04-25T15:51:24.870Z,9.50
2023-04-25T15:53:54.882Z,9.60
2023-04-25T15:56:25.117Z,9.70
2023-04-25T15:58:55.601Z,9.90
2023-04-25T16:01:31.221Z,10.30
2023-04-25T16:04:02.167Z,10.30
2023-04-25T16:06:32.547Z,10.10
2023-04-25T16:09:02.893Z,10.00
2023-04-25T16:11:33.273Z,9.90
2023-04-25T16:14:03.962Z,9.90
2023-04-25T16:16:36.661Z,9.80
2023-04-25T16:19:07.992Z,9.70
2023-04-25T16:21:38.211Z,9.60
2023-04-25T16:24:09.330Z,9.60
2023-04-25T16:26:40.869Z,9.60
2023-04-25T16:29:11.073Z,9.70
2023-04-25T16:31:44.243Z,9.80
2023-04-25T16:34:14.483Z,9.70
2023-04-25T16:36:44.631Z,9.70
2023-04-25T16:39:14.638Z,9.60
2023-04-25T16:41:45.152Z,9.60
2023-04-25T16:44:15.188Z,9.60
2023-04-25T16:46:47.806Z,9.60
2023-04-25T16:49:17.876Z,9.50
2023-04-25T16:51:49.206Z,9.50
2023-04-25T16:54:19.168Z,9.50
2023-04-25T16:56:49.290Z,9.40
2023-04-25T16:59:19.348Z,9.40
2023-04-25T17:01:52.459Z,9.40
2023-04-25T17:04:23.294Z,9.40
2023-04-25T17:06:53.578Z,9.30
2023-04-25T17:09:23.610Z,9.30
2023-04-25T17:11:53.968Z,9.20
2023-04-25T17:14:24.067Z,9.30
2023-04-25T17:16:56.822Z,9.30
2023-04-25T17:19:27.687Z,9.40
2023-04-25T17:21:58.219Z,9.40
2023-04-25T17:24:36.188Z,9.30
2023-04-25T17:27:06.837Z,9.20
2023-04-25T17:29:37.102Z,9.20
2023-04-25T17:32:09.705Z,9.20
2023-04-25T17:34:40.417Z,9.20
2023-04-25T17:37:15.321Z,9.10
2023-04-25T17:39:46.380Z,9.00
2023-04-25T17:42:16.403Z,9.00
2023-04-25T17:44:46.534Z,9.00
2023-04-25T17:47:19.611Z,8.90
2023-04-25T17:49:49.649Z,8.90
2023-04-25T17:52:19.732Z,8.90
2023-04-25T17:54:49.863Z,8.80
2023-04-25T17:57:21.913Z,8.80
2023-04-25T17:59:51.915Z,8.80
2023-04-25T18:02:24.791Z,8.70
2023-04-25T18:04:55.749Z,8.70
2023-04-25T18:07:25.852Z,8.70
2023-04-25T18:09:55.909Z,8.70
2023-04-25T18:12:27.505Z,8.60
2023-04-25T18:14:58.147Z,8.60
2023-04-25T18:17:30.982Z,8.60
2023-04-25T18:20:01.956Z,8.60
2023-04-25T18:22:32.029Z,8.50
2023-04-25T18:25:04.586Z,8.40
2023-04-25T18:27:34.700Z,8.40
2023-04-25T18:30:04.763Z,8.40
2023-04-25T18:32:37.503Z,8.40
2023-04-25T18:35:10.294Z,8.40
2023-04-25T18:37:42.012Z,8.50
2023-04-25T18:40:15.778Z,8.50
2023-04-25T18:42:46.070Z,8.40
2023-04-25T18:45:16.158Z,8.40
2023-04-25T18:47:49.092Z,8.30
2023-04-25T18:50:20.684Z,8.30
2023-04-25T18:52:50.709Z,8.30
2023-04-25T18:55:21.274Z,8.30
2023-04-25T18:57:51.407Z,8.30
2023-04-25T19:00:24.957Z,8.20
2023-04-25T19:03:03.366Z,8.20
2023-04-25T19:05:34.176Z,8.20
2023-04-25T19:08:04.233Z,8.10
2023-04-25T19:10:34.484Z,8.10
2023-04-25T19:13:04.432Z,8.00
2023-04-25T19:15:35.093Z,7.90
2023-04-25T19:18:08.462Z,7.90
2023-04-25T19:20:39.521Z,7.90
2023-04-25T19:23:10.665Z,7.80
2023-04-25T19:25:40.745Z,7.90
2023-04-25T19:28:13.015Z,7.80
2023-04-25T19:30:43.175Z,7.90
2023-04-25T19:33:15.856Z,7.80
2023-04-25T19:35:45.909Z,7.70
2023-04-25T19:38:16.679Z,7.70
2023-04-25T19:40:46.784Z,7.70
2023-04-25T19:43:17.012Z,7.70
2023-04-25T19:45:47.142Z,7.60
2023-04-25T19:48:20.116Z,7.70
2023-04-25T19:50:50.087Z,7.60
2023-04-25T19:53:20.284Z,7.60
2023-04-25T19:55:50.295Z,7.60
2023-04-25T19:58:21.384Z,7.70
2023-04-25T20:00:51.771Z,7.70
2023-04-25T20:03:24.709Z,7.70
2023-04-25T20:05:54.903Z,7.60
2023-04-25T20:08:26.146Z,7.60
2023-04-25T20:10:56.332Z,7.70
2023-04-25T20:13:26.264Z,7.60
2023-04-25T20:15:56.635Z,7.60
2023-04-25T20:18:29.677Z,7.60
2023-04-25T20:20:59.904Z,7.50
2023-04-25T20:23:29.874Z,7.50
2023-04-25T20:25:59.831Z,7.50
2023-04-25T20:28:29.793Z,7.40
2023-04-25T20:30:59.869Z,7.50
2023-04-25T20:33:32.429Z,7.50
2023-04-25T20:36:02.373Z,7.40
2023-04-25T20:38:32.741Z,7.40
2023-04-25T20:41:04.591Z,7.40
2023-04-25T20:43:34.661Z,7.30
2023-04-25T20:46:04.714Z,7.40
2023-04-25T20:48:37.286Z,7.40
2023-04-25T20:51:07.458Z,7.30
2023-04-25T20:53:37.698Z,7.30
2023-04-25T20:56:07.951Z,7.30
2023-04-25T20:58:37.950Z,7.20
2023-04-25T21:01:08.216Z,7.20
2023-04-25T21:03:41.037Z,7.20
2023-04-25T21:06:11.151Z,7.10
2023-04-25T21:08:41.216Z,7.20
2023-04-25T21:11:11.437Z,7.20
2023-04-25T21:13:41.486Z,7.10
2023-04-25T21:16:11.445Z,7.20
2023-04-25T21:18:44.005Z,7.10
2023-04-25T21:21:14.194Z,7.00
2023-04-25T21:23:45.544Z,7.00
2023-04-25T21:26:15.721Z,7.00
2023-04-25T21:28:47.001Z,6.90
2023-04-25T21:31:17.353Z,7.00
2023-04-25T21:33:49.940Z,7.00
2023-04-25T21:36:19.904Z,7.00
2023-04-25T21:38:50.361Z,7.00
2023-04-25T21:41:20.610Z,6.90
2023-04-25T21:43:50.575Z,6.80
2023-04-25T21:46:23.742Z,6.70
2023-04-25T21:48:56.519Z,6.70
2023-04-25T21:51:27.581Z,6.70
2023-04-25T21:54:00.698Z,6.70
2023-04-25T21:56:30.677Z,6.70
2023-04-25T21:59:00.679Z,6.70
2023-04-25T22:01:30.768Z,6.60
2023-04-25T22:04:03.556Z,6.60
2023-04-25T22:06:33.620Z,6.50
2023-04-25T22:09:04.917Z,6.50
2023-04-25T22:11:36.841Z,6.60
2023-04-25T22:14:07.130Z,6.50
2023-04-25T22:16:37.805Z,6.40
2023-04-25T22:19:10.607Z,6.40
2023-04-25T22:21:40.871Z,6.30
2023-04-25T22:24:11.283Z,6.40
2023-04-25T22:26:41.250Z,6.30
2023-04-25T22:29:11.359Z,6.30
2023-04-25T22:31:41.343Z,6.30
2023-04-25T22:34:14.806Z,6.20
2023-04-25T22:36:44.777Z,6.30
2023-04-25T22:39:16.907Z,6.20
2023-04-25T22:41:47.690Z,6.20
2023-04-25T22:44:17.916Z,6.20
2023-04-25T22:46:48.245Z,6.10
2023-04-25T22:49:20.809Z,6.10
2023-04-25T22:51:55.678Z,6.10
2023-04-25T22:54:25.701Z,6.10
2023-04-25T22:56:55.642Z,6.00
2023-04-25T22:59:25.603Z,6.00
2023-04-25T23:01:56.681Z,6.10
2023-04-25T23:04:29.456Z,6.10
2023-04-25T23:07:00.369Z,6.10
2023-04-25T23:09:30.415Z,6.00
2023-04-25T23:12:00.413Z,5.90
2023-04-25T23:14:30.470Z,5.90
2023-04-25T23:17:00.510Z,5.90
2023-04-25T23:19:34.092Z,5.90
2023-04-25T23:22:05.987Z,5.80
2023-04-25T23:24:40.902Z,5.90
2023-04-25T23:27:11.036Z,5.80
2023-04-25T23:29:41.133Z,5.80
2023-04-25T23:32:12.816Z,5.70
2023-04-25T23:34:45.349Z,5.80
2023-04-25T23:37:15.370Z,5.70
2023-04-25T23:39:51.587Z,5.70
2023-04-25T23:42:22.716Z,5.70
2023-04-25T23:44:52.688Z,5.70
2023-04-25T23:47:22.728Z,5.70
2023-04-25T23:49:55.643Z,5.70
2023-04-25T23:52:26.382Z,5.60
2023-04-25T23:54:56.464Z,5.60
2023-04-25T23:57:26.452Z,5.50
2023-04-25T23:59:57.169Z,5.60
